Time;durP1;ratioP1;P1;durP2;ratioP2;P2;SDS_P1;SDS_P2;PMS_P1;PMS_P2;Temp;Humidity;BMP_temperature;BMP_pressure;BME280_temperature;BME280_humidity;BME280_pressure;Samples;Min_cycle;Max_cycle;Signal;HPM_P1;HPM_P2
2024/01/07 00:01:26;;;;;;;51.10;21.85;;;;;;;5.21;81.94;93659.94;5026962;28;20059;-85
2024/01/07 00:03:52;;;;;;;46.58;22.25;;;;;;;5.61;82.32;93721.88;5030633;28;20120;-85
2024/01/07 00:06:18;;;;;;;53.85;22.88;;;;;;;5.50;82.34;93701.97;5038660;28;20040;-85
2024/01/07 00:08:43;;;;;;;58.88;22.85;;;;;;;5.82;82.25;93739.03;5024038;28;20037;-85
2024/01/07 00:11:09;;;;;;;54.95;22.95;;;;;;;5.61;81.79;93697.41;5032780;28;20122;-86
2024/01/07 00:13:34;;;;;;;52.35;23.17;;;;;;;5.64;81.89;93712.66;5020943;28;20083;-85
2024/01/07 00:16:00;;;;;;;65.93;25.48;;;;;;;5.60;82.09;93727.41;5035610;28;20059;-85
2024/01/07 00:18:26;;;;;;;51.95;24.30;;;;;;;5.31;82.72;93696.63;5018732;28;20030;-85
2024/01/07 00:20:53;;;;;;;53.30;24.85;;;;;;;5.35;82.44;93681.88;5034149;28;20088;-85
2024/01/07 00:23:20;;;;;;;51.25;24.73;;;;;;;4.85;82.10;93583.25;5037602;28;20021;-84
2024/01/07 00:25:46;;;;;;;52.67;24.77;;;;;;;5.88;82.28;93736.38;5036058;28;20037;-85
2024/01/07 00:28:12;;;;;;;60.80;26.15;;;;;;;5.81;81.64;93703.25;5048041;28;20109;-85
2024/01/07 00:30:37;;;;;;;52.63;24.25;;;;;;;5.31;81.10;93638.81;5015647;28;20061;-84
2024/01/07 00:33:03;;;;;;;56.55;25.25;;;;;;;5.11;81.33;93623.22;5032613;28;20025;-84
2024/01/07 00:35:29;;;;;;;60.63;25.52;;;;;;;5.12;81.85;93652.91;5025079;28;20040;-84
2024/01/07 00:37:56;;;;;;;55.47;25.50;;;;;;;5.63;82.58;93700.56;5038182;28;20029;-84
2024/01/07 00:40:26;;;;;;;64.55;24.75;;;;;;;5.45;82.51;93667.84;5038465;28;20037;-84
2024/01/07 00:42:51;;;;;;;50.38;23.70;;;;;;;5.01;82.84;93592.59;5023896;28;20030;-85
2024/01/07 00:45:18;;;;;;;58.63;26.40;;;;;;;5.32;82.46;93626.47;5018988;28;20037;-85
2024/01/07 00:47:43;;;;;;;49.40;24.00;;;;;;;5.18;82.41;93602.69;5035775;28;20123;-85
2024/01/07 00:50:09;;;;;;;63.72;26.80;;;;;;;5.82;82.54;93689.03;5038047;28;20094;-85
2024/01/07 00:52:36;;;;;;;54.53;24.88;;;;;;;5.30;82.21;93589.16;5037531;28;20037;-85
2024/01/07 00:55:04;;;;;;;55.15;26.30;;;;;;;3.88;81.77;93351.59;5038738;28;20120;-85
2024/01/07 00:57:30;;;;;;;55.88;24.85;;;;;;;4.97;81.24;93523.25;5038975;28;20025;-85
2024/01/07 00:59:55;;;;;;;51.53;23.30;;;;;;;4.93;82.12;93532.75;5034730;28;20573;-85
2024/01/07 01:02:21;;;;;;;53.75;24.55;;;;;;;5.05;81.80;93542.88;5019864;28;20029;-86
2024/01/07 01:04:47;;;;;;;50.60;23.23;;;;;;;3.64;81.34;93342.88;5036894;28;20037;-85
2024/01/07 01:07:13;;;;;;;58.15;24.92;;;;;;;3.54;81.38;93314.91;5037201;28;20025;-85
2024/01/07 01:09:38;;;;;;;50.28;24.67;;;;;;;5.77;81.95;93654.91;5053464;28;20129;-85
2024/01/07 01:12:04;;;;;;;59.95;23.95;;;;;;;5.65;82.46;93651.06;5032883;28;20040;-86
2024/01/07 01:14:29;;;;;;;48.83;23.73;;;;;;;5.66;82.25;93628.97;5042596;28;20025;-85
2024/01/07 01:16:55;;;;;;;45.22;23.40;;;;;;;5.78;82.13;93637.28;5058174;28;20092;-85
2024/01/07 01:19:20;;;;;;;48.78;23.50;;;;;;;5.07;82.04;93518.94;5038992;28;20025;-85
2024/01/07 01:21:46;;;;;;;55.28;24.58;;;;;;;5.41;82.18;93559.06;5056098;28;20522;-85
2024/01/07 01:24:12;;;;;;;51.30;24.65;;;;;;;5.49;82.24;93552.41;5055954;28;20056;-85
2024/01/07 01:26:39;;;;;;;45.75;22.08;;;;;;;5.71;81.94;93590.28;5038252;28;20039;-85
2024/01/07 01:29:05;;;;;;;49.35;23.90;;;;;;;5.70;82.19;93587.91;5037349;28;20029;-86
2024/01/07 01:31:30;;;;;;;53.35;22.88;;;;;;;5.27;81.85;93501.09;5036553;28;20411;-85
2024/01/07 01:33:56;;;;;;;42.20;21.40;;;;;;;5.88;81.96;93586.41;5038423;28;20143;-87
2024/01/07 01:36:21;;;;;;;48.75;22.50;;;;;;;4.92;81.57;93425.31;5056414;28;20055;-86
2024/01/07 01:38:48;;;;;;;49.40;22.08;;;;;;;5.24;81.74;93470.16;5056368;28;20061;-87
2024/01/07 01:41:14;;;;;;;45.78;21.33;;;;;;;5.92;81.82;93576.88;5032160;28;20033;-87
2024/01/07 01:43:40;;;;;;;53.28;22.77;;;;;;;4.95;82.31;93409.03;5025408;28;20036;-86
2024/01/07 01:46:05;;;;;;;48.33;22.13;;;;;;;5.98;82.00;93552.06;5056139;28;20033;-86
2024/01/07 01:48:31;;;;;;;44.97;21.48;;;;;;;5.73;82.26;93519.72;5054925;28;20049;-87
2024/01/07 01:50:57;;;;;;;42.50;21.98;;;;;;;5.40;82.22;93492.56;5044669;28;20028;-86
2024/01/07 01:53:27;;;;;;;50.60;20.80;;;;;;;5.36;82.67;93462.63;5049080;28;20072;-86
2024/01/07 01:55:55;;;;;;;51.88;21.58;;;;;;;5.13;82.97;93431.91;5038367;28;20029;-86
2024/01/07 01:58:21;;;;;;;45.72;20.85;;;;;;;5.29;82.77;93464.81;5057150;28;20083;-85
2024/01/07 02:00:47;;;;;;;41.40;21.33;;;;;;;4.86;83.50;93389.69;5022442;28;20029;-86
2024/01/07 02:03:12;;;;;;;49.15;20.85;;;;;;;5.67;82.89;93522.72;5038211;28;20033;-86
2024/01/07 02:05:38;;;;;;;40.70;21.50;;;;;;;5.76;83.09;93527.06;5040000;28;20025;-86
2024/01/07 02:08:04;;;;;;;44.33;21.95;;;;;;;5.35;83.19;93471.56;5022164;28;20032;-86
2024/01/07 02:10:34;;;;;;;48.83;21.45;;;;;;;4.22;82.78;93307.69;5061545;28;20071;-85
2024/01/07 02:13:00;;;;;;;41.85;20.77;;;;;;;5.76;83.35;93529.69;5044188;28;20430;-86
2024/01/07 02:15:26;;;;;;;45.00;19.50;;;;;;;4.06;82.74;93258.28;5062839;28;20071;-85
2024/01/07 02:17:52;;;;;;;43.80;21.52;;;;;;;5.75;82.75;93499.19;5067522;28;20036;-86
2024/01/07 02:20:17;;;;;;;41.95;20.45;;;;;;;5.48;82.70;93450.94;5060073;28;20056;-85
2024/01/07 02:22:43;;;;;;;52.72;21.48;;;;;;;5.41;83.23;93438.91;5046620;28;20576;-85
2024/01/07 02:25:08;;;;;;;53.78;21.60;;;;;;;5.11;83.51;93380.72;5028256;28;20105;-86
2024/01/07 02:27:34;;;;;;;45.58;22.02;;;;;;;5.69;83.54;93439.84;5027032;28;20531;-85
2024/01/07 02:30:00;;;;;;;50.75;20.92;;;;;;;5.31;83.86;93377.81;5036533;28;20060;-86
2024/01/07 02:32:26;;;;;;;48.17;20.65;;;;;;;5.58;84.81;93417.38;5049886;28;20109;-87
2024/01/07 02:34:52;;;;;;;49.58;21.00;;;;;;;4.56;84.15;93239.34;5037826;28;20115;-86
2024/01/07 02:37:17;;;;;;;44.25;21.27;;;;;;;5.52;83.92;93379.06;5036961;28;20095;-86
2024/01/07 02:39:44;;;;;;;52.40;21.58;;;;;;;5.04;84.08;93329.28;5037441;28;20033;-85
2024/01/07 02:42:10;;;;;;;43.22;21.38;;;;;;;5.34;84.62;93385.88;5037214;28;20051;-86
2024/01/07 02:44:35;;;;;;;42.08;22.17;;;;;;;5.32;84.77;93382.78;5059604;28;20037;-85
2024/01/07 02:47:01;;;;;;;43.97;22.25;;;;;;;4.79;84.77;93297.31;5055478;28;20088;-85
2024/01/07 02:49:27;;;;;;;42.67;21.92;;;;;;;4.93;84.65;93303.44;5024520;28;20096;-86
2024/01/07 02:51:53;;;;;;;43.17;22.67;;;;;;;5.86;84.66;93443.81;5053443;28;20030;-86
2024/01/07 02:54:18;;;;;;;55.08;22.35;;;;;;;5.79;84.12;93452.88;5029223;28;20043;-85
2024/01/07 02:56:44;;;;;;;46.85;21.23;;;;;;;5.81;84.51;93432.28;5040322;28;20067;-86
2024/01/07 02:59:09;;;;;;;48.38;21.45;;;;;;;5.90;84.12;93435.09;5030956;28;20032;-85
2024/01/07 03:01:40;;;;;;;55.17;22.00;;;;;;;4.62;83.80;93232.16;5031474;28;20415;-86
2024/01/07 03:04:07;;;;;;;46.05;22.17;;;;;;;5.53;84.28;93411.41;5057761;28;20483;-85
2024/01/07 03:06:33;;;;;;;45.42;21.95;;;;;;;5.85;84.57;93450.94;5036458;28;20029;-86
2024/01/07 03:08:58;;;;;;;45.20;22.65;;;;;;;5.67;84.07;93399.09;5023328;28;20034;-85
2024/01/07 03:11:24;;;;;;;40.70;20.58;;;;;;;5.60;84.45;93401.31;5031531;28;20112;-86
2024/01/07 03:13:49;;;;;;;55.03;23.25;;;;;;;5.17;84.15;93337.53;5037208;28;20037;-85
2024/01/07 03:16:22;;;;;;;50.33;23.63;;;;;;;5.76;84.27;93439.47;5034238;28;20025;-85
2024/01/07 03:18:48;;;;;;;53.55;23.58;;;;;;;5.89;84.63;93466.94;5035905;28;20037;-85
2024/01/07 03:21:21;;;;;;;43.08;22.77;;;;;;;5.81;84.94;93471.75;5053891;28;20532;-85
2024/01/07 03:23:48;;;;;;;45.95;23.55;;;;;;;4.83;84.65;93306.19;5055454;28;20090;-85
2024/01/07 03:26:14;;;;;;;52.78;23.52;;;;;;;5.80;84.44;93448.34;5054194;28;20396;-86
2024/01/07 03:28:39;;;;;;;47.28;21.10;;;;;;;5.61;85.57;93479.16;5036751;28;20100;-86
2024/01/07 03:31:10;;;;;;;49.30;21.23;;;;;;;5.16;87.17;93426.09;5028483;28;20088;-85
2024/01/07 03:33:38;;;;;;;38.65;20.77;;;;;;;4.99;88.07;93389.00;5015650;28;20472;-86
2024/01/07 03:36:13;;;;;;;37.28;18.80;;;;;;;5.58;88.98;93466.56;5030354;28;20053;-86
2024/01/07 03:38:41;;;;;;;39.58;19.88;;;;;;;5.35;89.33;93418.22;5038293;28;20032;-85
2024/01/07 03:41:07;;;;;;;36.35;18.73;;;;;;;4.99;90.28;93366.13;5038837;28;20220;-86
2024/01/07 03:43:33;;;;;;;35.25;17.25;;;;;;;4.61;90.17;93283.88;5041395;28;20029;-86
2024/01/07 03:45:58;;;;;;;35.25;17.58;;;;;;;5.69;90.67;93437.22;5023087;28;20044;-86
2024/01/07 03:48:25;;;;;;;37.00;17.70;;;;;;;4.73;90.18;93267.69;5038942;28;20415;-86
2024/01/07 03:50:50;;;;;;;37.03;19.33;;;;;;;6.07;90.51;93455.63;5023609;28;20519;-86
2024/01/07 03:53:16;;;;;;;36.55;18.65;;;;;;;5.96;90.54;93436.56;5041248;28;20033;-86
2024/01/07 03:55:42;;;;;;;39.65;16.88;;;;;;;5.65;90.66;93388.88;5057635;28;20033;-86
2024/01/07 03:58:07;;;;;;;37.58;18.90;;;;;;;4.66;91.77;93238.38;5031286;28;20141;-85
2024/01/07 04:00:34;;;;;;;32.75;16.45;;;;;;;5.90;91.43;93411.41;5039289;28;20108;-83
2024/01/07 04:03:00;;;;;;;29.05;14.43;;;;;;;5.15;91.91;93298.41;5033184;28;20045;-82
2024/01/07 04:05:26;;;;;;;27.27;13.55;;;;;;;6.09;92.48;93427.97;5051136;28;20025;-82
2024/01/07 04:07:51;;;;;;;27.00;14.15;;;;;;;6.26;92.53;93430.03;5022444;28;20044;-82
2024/01/07 04:10:17;;;;;;;28.92;13.73;;;;;;;6.42;92.43;93443.72;5030514;28;20034;-82
2024/01/07 04:12:43;;;;;;;34.60;12.30;;;;;;;6.09;92.50;93396.38;5016392;28;20068;-80
2024/01/07 04:15:09;;;;;;;27.17;12.40;;;;;;;5.91;92.36;93349.06;5049890;28;20369;-80
2024/01/07 04:17:35;;;;;;;25.77;12.60;;;;;;;6.39;92.01;93416.16;5023323;28;20025;-80
2024/01/07 04:20:00;;;;;;;32.75;12.50;;;;;;;6.58;91.65;93432.66;5016761;28;20075;-81
2024/01/07 04:22:26;;;;;;;24.58;12.05;;;;;;;6.37;91.76;93381.41;5020810;28;20037;-80
2024/01/07 04:24:51;;;;;;;24.40;11.40;;;;;;;6.48;91.42;93392.56;5053559;28;20026;-81
2024/01/07 04:27:17;;;;;;;23.88;10.02;;;;;;;6.42;91.70;93388.44;5052627;28;20828;-81
2024/01/07 04:29:42;;;;;;;13.55;8.27;;;;;;;6.46;91.63;93381.53;5019058;28;20060;-81
2024/01/07 04:32:08;;;;;;;22.33;10.15;;;;;;;6.64;91.82;93396.47;5020409;28;20132;-81
2024/01/07 04:34:33;;;;;;;17.95;9.80;;;;;;;6.22;91.17;93315.09;5019426;28;20124;-81
2024/01/07 04:36:59;;;;;;;22.42;10.52;;;;;;;6.49;91.27;93362.50;5019390;28;20025;-81
2024/01/07 04:39:24;;;;;;;26.13;10.85;;;;;;;6.47;91.53;93348.88;5036340;28;20029;-81
2024/01/07 04:41:50;;;;;;;18.23;10.10;;;;;;;5.93;91.45;93273.25;5018906;28;20411;-81
2024/01/07 04:44:15;;;;;;;16.05;7.85;;;;;;;6.53;92.09;93385.34;5028234;28;20029;-81
2024/01/07 04:46:41;;;;;;;16.73;8.65;;;;;;;6.46;92.39;93363.09;5037501;28;20060;-81
2024/01/07 04:49:06;;;;;;;14.77;8.05;;;;;;;6.59;93.00;93370.22;5026558;28;20041;-81
2024/01/07 04:51:33;;;;;;;18.25;9.23;;;;;;;6.07;92.41;93293.25;5017965;28;20146;-81
2024/01/07 04:53:59;;;;;;;20.00;8.32;;;;;;;6.50;92.69;93361.44;5035242;28;20052;-81
2024/01/07 04:56:24;;;;;;;26.33;13.32;;;;;;;6.53;92.17;93416.16;5017737;28;20038;-80
2024/01/07 04:58:50;;;;;;;26.80;12.65;;;;;;;6.26;92.79;93382.66;5035559;28;20061;-80
2024/01/07 05:01:15;;;;;;;26.23;14.43;;;;;;;6.18;92.63;93380.69;5017864;28;20436;-81
2024/01/07 05:03:41;;;;;;;26.40;14.32;;;;;;;6.35;92.72;93411.72;5034811;28;20033;-81
2024/01/07 05:06:10;;;;;;;28.05;15.65;;;;;;;6.27;92.31;93397.38;5036032;28;20036;-80
2024/01/07 05:08:37;;;;;;;29.33;14.07;;;;;;;6.07;92.95;93360.88;5033824;28;20384;-80
2024/01/07 05:11:03;;;;;;;30.02;14.98;;;;;;;6.14;93.48;93395.50;5015907;28;20030;-80
2024/01/07 05:13:28;;;;;;;34.17;17.35;;;;;;;6.00;93.19;93381.53;5034327;28;20105;-80
2024/01/07 05:15:54;;;;;;;33.40;17.10;;;;;;;6.10;93.14;93376.88;5033580;28;20037;-81
2024/01/07 05:18:23;;;;;;;37.38;18.50;;;;;;;5.67;94.72;93317.56;5033567;28;20060;-80
2024/01/07 05:20:50;;;;;;;36.65;17.80;;;;;;;5.74;94.91;93341.66;5033209;28;20065;-81
2024/01/07 05:23:16;;;;;;;35.95;17.77;;;;;;;5.71;95.24;93371.19;5034812;28;20041;-81
2024/01/07 05:25:45;;;;;;;36.30;18.45;;;;;;;5.86;96.21;93409.63;5034887;28;20141;-81
2024/01/07 05:28:12;;;;;;;29.67;14.65;;;;;;;5.72;95.60;93370.13;5029754;28;20491;-81
2024/01/07 05:30:38;;;;;;;30.45;15.68;;;;;;;5.75;95.28;93367.69;5038377;28;20102;-81
2024/01/07 05:33:04;;;;;;;35.80;15.18;;;;;;;6.13;95.38;93412.38;5015956;28;20499;-81
2024/01/07 05:35:30;;;;;;;28.75;13.75;;;;;;;5.68;95.10;93324.41;5033643;28;20126;-81
2024/01/07 05:37:56;;;;;;;20.98;12.35;;;;;;;5.67;94.96;93318.34;5054330;28;20021;-81
2024/01/07 05:40:22;;;;;;;23.67;12.57;;;;;;;5.96;94.63;93359.47;5033872;28;20040;-81
2024/01/07 05:42:47;;;;;;;26.52;13.75;;;;;;;6.05;94.52;93365.66;5034145;28;20029;-82
2024/01/07 05:45:13;;;;;;;23.33;13.63;;;;;;;6.18;94.73;93370.94;5053215;28;20108;-82
2024/01/07 05:47:40;;;;;;;23.95;13.77;;;;;;;6.09;94.57;93354.28;5030551;28;20025;-82
2024/01/07 05:50:06;;;;;;;27.55;13.98;;;;;;;6.17;94.45;93373.88;5034001;28;20025;-82
2024/01/07 05:52:32;;;;;;;31.15;13.45;;;;;;;6.08;94.42;93362.44;5032751;28;20029;-82
2024/01/07 05:54:57;;;;;;;26.58;13.07;;;;;;;5.61;94.83;93290.59;5024132;28;20055;-82
2024/01/07 05:57:23;;;;;;;24.05;13.52;;;;;;;6.12;94.96;93347.63;5053757;28;20048;-82
2024/01/07 05:59:50;;;;;;;33.08;13.52;;;;;;;5.80;94.16;93319.47;5024779;28;20067;-82
2024/01/07 06:02:16;;;;;;;22.67;12.65;;;;;;;6.12;94.87;93410.78;5027733;28;20119;-82
2024/01/07 06:04:42;;;;;;;28.48;13.05;;;;;;;6.05;95.65;93400.66;5022462;28;20032;-82
2024/01/07 06:07:08;;;;;;;27.88;13.25;;;;;;;5.86;95.55;93343.84;5033732;28;20124;-82
2024/01/07 06:09:34;;;;;;;28.40;13.15;;;;;;;5.67;95.35;93297.31;5031692;28;20423;-82
2024/01/07 06:12:01;;;;;;;24.95;12.60;;;;;;;5.96;94.97;93333.16;5019311;28;20638;-82
2024/01/07 06:14:26;;;;;;;22.58;12.32;;;;;;;5.76;95.09;93300.06;5033638;28;20067;-81
2024/01/07 06:16:52;;;;;;;25.58;12.30;;;;;;;5.77;94.96;93281.38;5035345;28;20025;-82
2024/01/07 06:19:18;;;;;;;20.48;11.43;;;;;;;5.89;94.59;93295.94;5053468;28;20040;-82
2024/01/07 06:21:43;;;;;;;22.83;11.20;;;;;;;6.41;94.99;93374.50;5032898;28;20048;-82
2024/01/07 06:24:09;;;;;;;18.75;11.00;;;;;;;6.39;94.59;93384.56;5018677;28;20033;-82
2024/01/07 06:26:36;;;;;;;22.98;12.13;;;;;;;6.44;94.66;93379.19;5035494;28;20435;-82
2024/01/07 06:29:01;;;;;;;28.58;12.40;;;;;;;6.39;94.59;93373.25;5046855;28;20467;-82
2024/01/07 06:31:27;;;;;;;24.58;11.75;;;;;;;5.82;94.07;93297.06;5033739;28;20135;-81
2024/01/07 06:33:55;;;;;;;23.58;12.00;;;;;;;6.38;94.46;93382.19;5014412;28;20527;-82
2024/01/07 06:36:21;;;;;;;20.65;12.18;;;;;;;6.42;94.92;93393.69;5015158;28;20037;-82
2024/01/07 06:38:48;;;;;;;30.35;12.55;;;;;;;6.01;94.28;93326.00;5033193;28;20032;-81
2024/01/07 06:41:14;;;;;;;22.60;13.13;;;;;;;6.58;94.32;93401.03;5046022;28;20024;-82
2024/01/07 06:43:39;;;;;;;24.70;13.35;;;;;;;6.10;94.28;93318.22;5034905;28;20037;-82
2024/01/07 06:46:05;;;;;;;27.55;11.70;;;;;;;5.97;93.94;93288.16;5052946;28;20091;-82
2024/01/07 06:48:30;;;;;;;29.38;13.27;;;;;;;6.07;93.42;93324.81;5034931;28;20100;-83
2024/01/07 06:50:57;;;;;;;22.17;13.40;;;;;;;6.50;94.31;93408.84;5035064;28;20117;-82
2024/01/07 06:53:23;;;;;;;26.42;13.65;;;;;;;6.23;94.13;93380.63;5053441;28;20036;-82
2024/01/07 06:55:48;;;;;;;28.10;13.35;;;;;;;6.07;94.63;93353.00;5052672;28;20033;-82
2024/01/07 06:58:14;;;;;;;28.08;12.85;;;;;;;6.50;94.47;93403.56;5033995;28;20032;-82
2024/01/07 07:00:39;;;;;;;26.08;12.63;;;;;;;6.29;94.56;93347.88;5017386;28;20045;-82
2024/01/07 07:03:06;;;;;;;28.30;12.63;;;;;;;6.44;94.18;93391.56;5034948;28;20025;-83
2024/01/07 07:05:32;;;;;;;21.90;12.35;;;;;;;6.65;94.46;93421.72;5034210;28;20079;-82
2024/01/07 07:07:57;;;;;;;30.08;13.70;;;;;;;6.31;94.41;93377.31;5034675;28;20060;-82
2024/01/07 07:10:23;;;;;;;27.60;13.07;;;;;;;6.57;94.59;93406.59;5052499;28;20036;-82
2024/01/07 07:12:50;;;;;;;25.27;13.32;;;;;;;6.34;94.19;93381.22;5034896;28;20094;-82
2024/01/07 07:15:16;;;;;;;20.55;12.40;;;;;;;6.67;94.93;93421.44;5034595;28;20476;-82
2024/01/07 07:17:42;;;;;;;25.70;12.85;;;;;;;6.33;95.27;93353.34;5023236;28;20040;-83
2024/01/07 07:20:08;;;;;;;26.33;12.45;;;;;;;6.56;95.74;93384.75;5013970;28;20054;-82
2024/01/07 07:22:34;;;;;;;29.48;13.73;;;;;;;6.12;95.93;93314.19;5027434;28;20035;-82
2024/01/07 07:25:00;;;;;;;31.13;14.60;;;;;;;6.14;95.84;93316.56;5033946;28;20029;-83
2024/01/07 07:27:25;;;;;;;25.05;13.93;;;;;;;6.52;95.98;93388.25;5034260;28;20087;-83
2024/01/07 07:29:51;;;;;;;26.80;12.80;;;;;;;6.38;95.96;93371.66;5052971;28;20059;-83
2024/01/07 07:32:16;;;;;;;27.95;13.23;;;;;;;6.50;95.42;93358.81;5035076;28;20045;-83
2024/01/07 07:34:42;;;;;;;27.98;13.15;;;;;;;6.72;95.13;93376.56;5049431;28;20283;-82
2024/01/07 07:37:07;;;;;;;32.03;15.07;;;;;;;6.78;95.96;93391.22;5030906;28;20350;-83
2024/01/07 07:39:33;;;;;;;23.15;12.60;;;;;;;6.21;95.62;93301.16;5016211;28;20033;-83
2024/01/07 07:41:59;;;;;;;34.00;14.57;;;;;;;6.35;95.58;93323.00;5034403;28;20029;-83
2024/01/07 07:44:25;;;;;;;22.98;12.48;;;;;;;6.33;94.70;93319.13;5022179;28;20043;-84
2024/01/07 07:46:50;;;;;;;23.40;12.52;;;;;;;5.30;94.71;93166.75;5052851;28;20021;-83
2024/01/07 07:49:16;;;;;;;24.25;12.98;;;;;;;6.30;94.78;93303.91;5032189;28;20034;-83
2024/01/07 07:51:43;;;;;;;33.72;13.40;;;;;;;6.34;95.24;93297.75;5018663;28;20033;-83
2024/01/07 07:54:09;;;;;;;23.00;12.18;;;;;;;7.16;95.27;93400.47;5045652;28;20407;-83
2024/01/07 07:56:35;;;;;;;26.88;12.05;;;;;;;7.32;95.25;93406.97;5056767;28;20052;-83
2024/01/07 07:59:01;;;;;;;29.70;13.70;;;;;;;6.95;95.20;93330.78;5056277;28;20388;-83
2024/01/07 08:01:27;;;;;;;27.50;14.73;;;;;;;7.09;94.69;93334.19;5038141;28;20033;-83
2024/01/07 08:03:52;;;;;;;26.60;12.05;;;;;;;6.72;94.73;93285.13;5056518;28;20033;-83
2024/01/07 08:06:18;;;;;;;27.08;13.77;;;;;;;7.20;94.64;93347.94;5021660;28;20119;-82
2024/01/07 08:08:43;;;;;;;27.77;14.07;;;;;;;6.70;93.78;93260.97;5053269;28;20108;-83
2024/01/07 08:11:09;;;;;;;30.10;14.07;;;;;;;7.40;93.65;93352.00;5056155;28;20211;-83
2024/01/07 08:13:36;;;;;;;24.83;12.82;;;;;;;7.66;92.66;93388.06;5055776;28;20032;-83
2024/01/07 08:16:01;;;;;;;28.23;14.85;;;;;;;6.89;92.35;93287.94;5034243;28;20100;-84
2024/01/07 08:18:27;;;;;;;24.08;13.20;;;;;;;7.38;91.85;93359.41;5035086;28;20026;-83
2024/01/07 08:20:52;;;;;;;33.55;14.45;;;;;;;7.62;91.96;93391.59;5034815;28;20463;-83
2024/01/07 08:23:18;;;;;;;30.73;17.50;;;;;;;7.65;91.64;93399.69;5024845;28;20029;-83
2024/01/07 08:25:45;;;;;;;31.70;16.17;;;;;;;7.25;91.52;93337.25;5037931;28;20029;-82
2024/01/07 08:28:11;;;;;;;31.45;16.05;;;;;;;7.56;91.31;93364.53;5037504;28;20115;-83
2024/01/07 08:30:36;;;;;;;33.33;17.08;;;;;;;7.72;91.53;93378.16;5048191;28;20480;-83
2024/01/07 08:33:02;;;;;;;47.60;18.83;;;;;;;7.55;91.48;93357.69;5038034;28;20029;-84
2024/01/07 08:35:27;;;;;;;31.52;17.55;;;;;;;7.58;92.03;93364.22;5038299;28;20465;-84
2024/01/07 08:37:53;;;;;;;34.15;18.67;;;;;;;7.85;91.81;93385.25;5057553;28;20352;-84
2024/01/07 08:40:18;;;;;;;33.80;19.23;;;;;;;7.87;91.78;93371.75;5056373;28;20037;-84
2024/01/07 08:42:44;;;;;;;43.92;21.85;;;;;;;7.52;91.65;93302.91;5056774;28;20544;-84
2024/01/07 08:45:11;;;;;;;46.47;22.35;;;;;;;7.92;92.51;93375.06;5038648;28;20040;-84
2024/01/07 08:47:37;;;;;;;35.63;21.75;;;;;;;8.11;91.59;93393.34;5035988;28;20109;-84
2024/01/07 08:50:03;;;;;;;41.33;21.13;;;;;;;7.88;92.01;93365.38;5037487;28;20029;-84
2024/01/07 08:52:29;;;;;;;39.45;22.02;;;;;;;7.97;91.60;93364.38;5021825;28;20052;-83
2024/01/07 08:54:55;;;;;;;38.95;21.88;;;;;;;7.99;91.62;93345.59;5038282;28;20024;-83
2024/01/07 08:57:20;;;;;;;35.85;20.77;;;;;;;8.02;91.26;93329.16;5038156;28;20040;-83
2024/01/07 08:59:46;;;;;;;41.92;20.55;;;;;;;8.51;91.18;93392.38;5049547;28;20085;-83
2024/01/07 09:02:12;;;;;;;42.60;19.65;;;;;;;8.27;91.31;93346.22;5017982;28;20037;-83
2024/01/07 09:04:38;;;;;;;31.73;16.60;;;;;;;8.12;90.34;93305.91;5017330;28;20047;-83
2024/01/07 09:07:03;;;;;;;31.27;19.25;;;;;;;8.50;90.75;93374.97;5029570;28;20079;-83
2024/01/07 09:09:29;;;;;;;32.22;18.27;;;;;;;8.75;90.98;93391.25;5037095;28;20071;-83
2024/01/07 09:11:56;;;;;;;34.92;20.60;;;;;;;8.64;90.64;93347.66;5023300;28;20125;-83
2024/01/07 09:14:22;;;;;;;35.42;18.23;;;;;;;8.30;89.59;93277.75;5036896;28;20470;-84
2024/01/07 09:16:47;;;;;;;33.08;16.58;;;;;;;8.36;88.45;93286.31;5052628;28;20037;-83
2024/01/07 09:19:13;;;;;;;27.80;14.95;;;;;;;8.86;87.30;93372.16;5056028;28;20094;-83
2024/01/07 09:21:38;;;;;;;26.38;14.43;;;;;;;8.49;86.60;93322.44;5018397;28;20095;-84
2024/01/07 09:24:04;;;;;;;25.33;14.40;;;;;;;8.19;87.60;93247.38;5037941;28;20112;-83
2024/01/07 09:26:30;;;;;;;31.27;14.57;;;;;;;8.95;87.12;93337.81;5056856;28;20064;-83
2024/01/07 09:28:56;;;;;;;21.95;13.18;;;;;;;8.96;85.97;93355.25;5033939;28;20032;-83
2024/01/07 09:31:22;;;;;;;27.00;14.27;;;;;;;9.18;86.92;93376.28;5018682;28;20369;-83
2024/01/07 09:33:47;;;;;;;31.70;16.45;;;;;;;8.73;87.38;93285.03;5019322;28;20036;-83
2024/01/07 09:36:13;;;;;;;29.17;15.82;;;;;;;9.26;86.85;93351.72;5026253;28;20025;-83
2024/01/07 09:38:40;;;;;;;28.40;16.10;;;;;;;9.55;86.78;93382.09;5055504;28;20024;-83
2024/01/07 09:41:05;;;;;;;24.17;14.30;;;;;;;9.71;85.48;93377.91;5055523;28;20061;-83
2024/01/07 09:43:31;;;;;;;23.60;13.48;;;;;;;9.82;84.51;93365.94;5043576;28;20033;-84
2024/01/07 09:45:58;;;;;;;33.20;15.32;;;;;;;9.73;84.21;93341.34;5016859;28;20129;-84
2024/01/07 09:48:24;;;;;;;27.38;14.23;;;;;;;9.58;84.31;93326.69;5035853;28;20389;-84
2024/01/07 09:50:54;;;;;;;24.98;14.18;;;;;;;9.37;83.02;93303.81;5018272;28;20034;-85
2024/01/07 09:53:20;;;;;;;25.40;13.07;;;;;;;8.98;83.86;93249.97;5020869;28;20496;-84
2024/01/07 09:55:53;;;;;;;27.90;14.50;;;;;;;9.82;84.57;93371.25;5018249;28;20167;-84
2024/01/07 09:58:18;;;;;;;24.25;12.45;;;;;;;9.85;82.21;93361.88;5019630;28;20034;-84
2024/01/07 10:00:44;;;;;;;24.95;11.35;;;;;;;9.38;82.16;93271.00;5039805;28;20024;-84
2024/01/07 10:03:10;;;;;;;30.95;12.45;;;;;;;8.99;81.05;93211.88;5037242;28;20028;-84
2024/01/07 10:05:35;;;;;;;19.25;10.48;;;;;;;9.46;80.02;93284.19;5030980;28;20030;-84
2024/01/07 10:08:02;;;;;;;19.75;10.82;;;;;;;9.62;79.86;93321.56;5023427;28;20491;-84
2024/01/07 10:10:28;;;;;;;21.80;8.95;;;;;;;9.92;80.60;93347.06;5028266;28;20044;-84
2024/01/07 10:12:56;;;;;;;16.08;8.10;;;;;;;9.87;79.55;93331.34;5017347;28;20036;-84
2024/01/07 10:15:22;;;;;;;22.65;7.97;;;;;;;9.60;78.77;93276.13;5046174;28;20037;-84
2024/01/07 10:17:48;;;;;;;14.55;6.25;;;;;;;10.07;77.91;93356.41;5036625;28;20041;-84
2024/01/07 10:20:13;;;;;;;12.38;6.50;;;;;;;9.85;77.13;93300.97;5019895;28;20436;-84
2024/01/07 10:22:39;;;;;;;11.35;6.38;;;;;;;10.16;76.54;93345.78;5029222;28;20093;-84
2024/01/07 10:25:06;;;;;;;19.30;7.63;;;;;;;10.43;76.87;93343.59;5033046;28;20029;-84
2024/01/07 10:27:38;;;;;;;11.60;7.05;;;;;;;10.42;75.80;93334.09;5032244;28;20029;-84
2024/01/07 10:30:04;;;;;;;12.43;6.82;;;;;;;10.35;75.81;93311.81;5016001;28;20220;-84
2024/01/07 10:32:29;;;;;;;13.00;7.18;;;;;;;10.60;76.53;93316.25;5014023;28;20034;-84
2024/01/07 10:35:04;;;;;;;17.65;7.60;;;;;;;10.81;76.34;93314.44;5034661;28;20178;-85
2024/01/07 10:37:31;;;;;;;17.85;8.50;;;;;;;11.17;76.57;93315.81;5032146;28;20522;-84
2024/01/07 10:40:03;;;;;;;19.08;10.45;;;;;;;11.41;74.27;93320.50;5026593;28;20029;-85
2024/01/07 10:42:33;;;;;;;23.35;13.15;;;;;;;11.12;74.65;93209.88;5021869;28;20052;-85
2024/01/07 10:45:02;;;;;;;17.90;7.82;;;;;;;12.09;74.22;93308.56;5034847;28;20037;-85
2024/01/07 10:47:31;;;;;;;13.98;6.88;;;;;;;11.98;72.29;93249.72;5032814;28;20034;-85
2024/01/07 10:49:59;;;;;;;13.23;7.57;;;;;;;12.69;71.02;93310.56;5011648;28;20030;-85
2024/01/07 10:52:27;;;;;;;14.90;7.70;;;;;;;12.48;68.54;93239.97;5023065;28;20033;-85
2024/01/07 10:54:56;;;;;;;14.50;7.22;;;;;;;13.44;69.43;93305.66;5025735;28;20451;-85
2024/01/07 10:57:32;;;;;;;21.23;7.70;;;;;;;13.23;68.04;93251.03;5033444;28;20037;-85
2024/01/07 11:00:00;;;;;;;15.25;7.90;;;;;;;13.01;65.60;93237.06;5014539;28;20033;-85
2024/01/07 11:02:26;;;;;;;15.00;7.57;;;;;;;12.98;64.37;93220.97;5030796;28;20064;-85
2024/01/07 11:05:05;;;;;;;11.57;6.72;;;;;;;12.77;67.53;93213.16;5033171;28;20029;-86
2024/01/07 11:07:48;;;;;;;16.50;6.10;;;;;;;13.30;67.35;93288.50;5033425;28;20033;-86
2024/01/07 11:10:19;;;;;;;19.13;8.18;;;;;;;13.22;65.35;93302.69;5035493;28;20037;-86
2024/01/07 11:12:53;;;;;;;;;;;;;;;13.06;66.06;93302.56;5041604;28;20044;-86
2024/01/07 11:15:47;;;;;;;14.23;7.65;;;;;;;13.03;68.37;93303.25;5020470;28;19928;-85
2024/01/07 11:18:19;;;;;;;16.77;8.35;;;;;;;12.42;68.23;93225.34;5020937;28;20098;-84
2024/01/07 11:20:46;;;;;;;19.42;8.38;;;;;;;12.73;66.71;93252.16;5042608;28;20057;-85
2024/01/07 11:23:33;;;;;;;11.38;6.50;;;;;;;13.00;66.14;93309.22;5026269;28;20128;-85